TimeCDT,TemperatureF,Dew PointF,Humidity,Sea Level PressureIn,VisibilityMPH,Wind Direction,Wind SpeedMPH,Gust SpeedMPH,PrecipitationIn,Events,Conditions,WindDirDegrees,DateUTC
12:54 AM,70.0,64.0,81,30.05,10.0,South,8.1,-,N/A,,Clear,190,2013-08-12 05:54:00
1:54 AM,69.1,63.0,81,30.04,10.0,South,4.6,-,N/A,,Clear,190,2013-08-12 06:54:00
2:54 AM,69.1,62.1,78,30.03,10.0,SSW,4.6,-,N/A,,Clear,210,2013-08-12 07:54:00
3:54 AM,68.0,62.1,81,30.03,10.0,SSW,5.8,-,N/A,,Clear,210,2013-08-12 08:54:00
4:54 AM,66.9,61.0,81,30.02,10.0,SSW,4.6,-,N/A,,Clear,200,2013-08-12 09:54:00
5:54 AM,66.9,61.0,81,30.01,10.0,South,4.6,-,N/A,,Clear,190,2013-08-12 10:54:00
6:54 AM,66.9,62.1,84,30.00,10.0,South,4.6,-,N/A,,Clear,180,2013-08-12 11:54:00
7:54 AM,71.1,63.0,75,29.99,10.0,SSW,6.9,-,N/A,,Clear,200,2013-08-12 12:54:00
8:54 AM,75.0,63.0,66,29.99,10.0,SW,8.1,-,N/A,,Clear,230,2013-08-12 13:54:00
9:54 AM,78.1,63.0,60,29.99,10.0,SSW,10.4,-,N/A,,Clear,210,2013-08-12 14:54:00
10:54 AM,79.0,64.0,60,29.99,10.0,SW,8.1,-,N/A,,Clear,220,2013-08-12 15:54:00
11:54 AM,82.0,66.0,58,29.99,10.0,WSW,6.9,-,N/A,,Clear,240,2013-08-12 16:54:00
12:54 PM,82.0,66.9,60,29.97,10.0,WSW,8.1,-,N/A,,Clear,240,2013-08-12 17:54:00
1:54 PM,82.0,66.9,60,29.95,10.0,WNW,5.8,-,N/A,,Clear,290,2013-08-12 18:54:00
2:54 PM,81.0,66.9,62,29.94,10.0,West,6.9,-,N/A,,Clear,280,2013-08-12 19:54:00
3:54 PM,81.0,68.0,65,29.93,10.0,WNW,8.1,-,N/A,,Partly Cloudy,300,2013-08-12 20:54:00
4:54 PM,75.9,71.1,85,29.92,6.0,NNW,4.6,-,0.03,Rain,Light Rain,330,2013-08-12 21:54:00
5:54 PM,78.1,69.1,74,29.91,10.0,NW,5.8,-,0.00,,Partly Cloudy,310,2013-08-12 22:54:00
6:35 PM,75.0,66.9,76,29.92,2.0,Calm,Calm,-,0.07,Rain,Light Rain,0,2013-08-12 23:35:00
6:44 PM,75.0,68.0,79,29.92,10.0,Calm,Calm,-,0.07,,Scattered Clouds,0,2013-08-12 23:44:00
6:54 PM,73.9,66.9,79,29.91,10.0,Calm,Calm,-,0.07,,Partly Cloudy,0,2013-08-12 23:54:00
7:54 PM,73.0,68.0,84,29.91,10.0,Calm,Calm,-,N/A,,Clear,0,2013-08-13 00:54:00
8:54 PM,71.1,68.0,90,29.94,8.0,Calm,Calm,-,N/A,,Clear,0,2013-08-13 01:54:00
9:54 PM,71.1,66.9,87,29.95,10.0,WNW,4.6,-,N/A,,Clear,290,2013-08-13 02:54:00
10:54 PM,70.0,64.0,81,29.95,10.0,NW,4.6,-,N/A,,Clear,320,2013-08-13 03:54:00